Time;durP1;ratioP1;P1;durP2;ratioP2;P2;SDS_P1;SDS_P2;PMS_P1;PMS_P2;Temp;Humidity;BMP_temperature;BMP_pressure;BME280_temperature;BME280_humidity;BME280_pressure;Samples;Min_cycle;Max_cycle;Signal;HPM_P1;HPM_P2
2022/06/02 00:00:12;;;;;;;7.18;4.93;;;13.00;65.60;;;;;;5094464;28;20032;-71
2022/06/02 00:02:47;;;;;;;9.40;5.43;;;12.70;66.30;;;;;;5094396;28;20021;-71
2022/06/02 00:05:20;;;;;;;7.97;5.78;;;12.60;67.00;;;;;;5094345;28;20621;-71
2022/06/02 00:08:05;;;;;;;8.52;6.13;;;12.70;67.30;;;;;;5094441;28;20025;-71
2022/06/02 00:11:00;;;;;;;8.23;5.90;;;12.80;67.30;;;;;;5094177;28;20028;-71
2022/06/02 00:13:37;;;;;;;9.23;6.53;;;12.90;67.00;;;;;;5094233;28;20024;-71
2022/06/02 00:16:25;;;;;;;9.52;6.20;;;12.70;67.20;;;;;;5094302;28;20497;-71
2022/06/02 00:18:57;;;;;;;9.55;6.10;;;12.70;67.10;;;;;;5094108;28;20021;-71
2022/06/02 00:21:25;;;;;;;9.85;6.22;;;12.60;67.50;;;;;;5094112;28;20020;-71
2022/06/02 00:24:02;;;;;;;7.72;6.05;;;12.60;67.70;;;;;;5093966;28;20028;-71
2022/06/02 00:26:55;;;;;;;9.27;6.45;;;12.60;67.70;;;;;;5093985;28;20092;-71
2022/06/02 00:29:34;;;;;;;9.80;6.50;;;12.50;68.00;;;;;;5093845;28;20080;-71
2022/06/02 00:32:03;;;;;;;10.65;6.65;;;12.40;68.50;;;;;;5093805;28;20481;-71
2022/06/02 00:34:36;;;;;;;11.40;6.60;;;12.50;68.30;;;;;;5093791;28;20020;-71
2022/06/02 00:37:23;;;;;;;8.98;6.38;;;12.60;67.90;;;;;;5093791;28;20025;-71
2022/06/02 00:39:50;;;;;;;11.43;6.55;;;12.60;67.80;;;;;;5093713;28;20017;-71
2022/06/02 00:42:33;;;;;;;10.43;6.57;;;12.40;67.90;;;;;;5093649;28;20021;-71
2022/06/02 00:45:12;;;;;;;9.98;6.90;;;12.30;68.40;;;;;;5092777;28;20024;-71
2022/06/02 00:47:59;;;;;;;8.98;6.63;;;12.40;68.20;;;;;;5093590;28;20036;-71
2022/06/02 00:50:48;;;;;;;9.82;6.40;;;12.40;68.00;;;;;;5092482;28;20032;-71
2022/06/02 00:53:19;;;;;;;10.20;6.78;;;12.30;68.00;;;;;;5093456;28;20131;-71
2022/06/02 00:59:10;;;;;;;9.20;6.75;;;12.30;67.90;;;;;;5093647;28;20036;-71
2022/06/02 01:01:37;;;;;;;9.95;7.00;;;12.30;68.10;;;;;;5093560;28;20035;-71
2022/06/02 01:04:08;;;;;;;11.73;7.43;;;12.20;68.00;;;;;;5093377;28;20076;-71
2022/06/02 01:06:44;;;;;;;11.20;7.97;;;11.90;68.20;;;;;;5093370;28;20029;-71
2022/06/02 01:09:19;;;;;;;10.75;7.28;;;11.70;69.30;;;;;;5093390;28;20080;-71
2022/06/02 01:12:04;;;;;;;11.25;7.28;;;11.80;69.80;;;;;;5093270;28;20033;-71
2022/06/02 01:14:54;;;;;;;9.80;7.05;;;11.80;69.80;;;;;;5093292;28;20020;-71
2022/06/02 01:17:35;;;;;;;10.80;7.25;;;11.90;69.30;;;;;;5093277;28;20031;-71
2022/06/02 01:20:03;;;;;;;12.35;7.72;;;11.80;68.90;;;;;;5093239;28;20040;-71
2022/06/02 01:22:47;;;;;;;10.35;7.20;;;11.70;69.30;;;;;;5093146;28;20024;-71
2022/06/02 01:25:47;;;;;;;10.80;7.38;;;11.80;69.20;;;;;;5092211;28;20096;-71
2022/06/02 01:28:49;;;;;;;12.43;8.57;;;11.80;68.80;;;;;;5092040;28;20115;-71
2022/06/02 01:31:27;;;;;;;14.30;7.88;;;11.60;69.30;;;;;;5093016;28;20024;-71
2022/06/02 01:34:11;;;;;;;9.63;6.97;;;11.60;69.70;;;;;;5093060;28;20025;-71
2022/06/02 01:36:49;;;;;;;10.60;7.35;;;11.40;69.60;;;;;;5093205;28;20375;-71
2022/06/02 01:39:39;;;;;;;10.27;7.00;;;11.50;69.60;;;;;;5093623;28;20442;-71
2022/06/02 01:42:16;;;;;;;11.00;7.53;;;11.50;69.40;;;;;;5096169;28;20456;-71
2022/06/02 01:45:17;;;;;;;12.18;7.50;;;11.60;69.30;;;;;;5097134;28;20048;-71
2022/06/02 01:47:46;;;;;;;11.30;7.40;;;11.60;69.20;;;;;;5035305;28;20061;-71
2022/06/02 01:50:44;;;;;;;11.85;7.97;;;11.60;70.30;;;;;;5085485;28;20102;-71
2022/06/02 01:53:34;;;;;;;14.27;8.88;;;11.60;69.30;;;;;;5096819;28;20152;-71
2022/06/02 01:56:13;;;;;;;11.05;8.05;;;11.50;68.90;;;;;;5096971;28;20029;-71
2022/06/02 01:58:55;;;;;;;12.18;7.97;;;11.50;69.50;;;;;;5096821;28;20080;-71
2022/06/02 02:01:33;;;;;;;11.18;7.55;;;11.50;69.40;;;;;;5096792;28;20028;-71
2022/06/02 02:04:16;;;;;;;12.98;8.77;;;11.60;69.30;;;;;;5096708;28;20032;-71
2022/06/02 02:06:57;;;;;;;12.77;8.82;;;11.60;69.20;;;;;;5096807;28;20051;-71
2022/06/02 02:09:41;;;;;;;12.38;8.40;;;11.50;69.60;;;;;;5096782;28;20059;-71
2022/06/02 02:12:32;;;;;;;12.52;9.07;;;11.50;69.30;;;;;;5096614;28;20028;-71
2022/06/02 02:15:12;;;;;;;13.43;8.68;;;11.60;69.20;;;;;;5065350;28;20037;-71
2022/06/02 02:17:51;;;;;;;12.85;9.10;;;11.70;69.20;;;;;;5096587;28;20017;-71
2022/06/02 02:20:43;;;;;;;14.18;9.45;;;11.70;68.90;;;;;;5095534;28;20043;-71
2022/06/02 02:23:18;;;;;;;13.00;8.15;;;11.60;69.10;;;;;;5073042;28;20032;-71
2022/06/02 02:25:43;;;;;;;11.85;8.32;;;11.60;69.30;;;;;;5096342;28;20028;-71
2022/06/02 02:28:46;;;;;;;11.60;8.18;;;11.70;69.00;;;;;;5095178;28;20029;-71
2022/06/02 02:31:40;;;;;;;12.88;8.48;;;11.50;69.30;;;;;;5096124;28;20078;-71
2022/06/02 02:34:15;;;;;;;11.75;8.05;;;11.30;70.70;;;;;;5096190;28;20025;-71
2022/06/02 02:37:07;;;;;;;10.93;8.07;;;11.10;71.00;;;;;;5096132;28;20017;-71
2022/06/02 02:39:44;;;;;;;12.45;8.45;;;10.90;71.70;;;;;;5096070;28;20024;-71
2022/06/02 02:42:26;;;;;;;12.60;8.30;;;10.90;71.70;;;;;;5096005;28;20024;-71
2022/06/02 02:45:31;;;;;;;11.43;7.63;;;11.10;71.30;;;;;;5095978;28;20032;-71
2022/06/02 02:48:25;;;;;;;11.82;8.30;;;11.10;71.00;;;;;;5096038;28;20040;-71
2022/06/02 02:50:56;;;;;;;10.43;7.15;;;11.10;70.60;;;;;;5063926;28;20068;-71
2022/06/02 02:53:58;;;;;;;13.93;8.77;;;10.90;70.50;;;;;;5095689;28;20048;-71
2022/06/02 02:56:44;;;;;;;14.15;8.73;;;10.90;70.90;;;;;;5041328;28;20090;-71
2022/06/02 02:59:26;;;;;;;10.85;7.55;;;10.70;70.90;;;;;;5095712;28;20029;-71
2022/06/02 03:02:15;;;;;;;13.52;8.57;;;10.70;70.80;;;;;;5095659;28;20028;-71
2022/06/02 03:05:06;;;;;;;15.60;10.23;;;10.80;70.70;;;;;;5095744;28;20024;-71
2022/06/02 03:07:32;;;;;;;18.30;10.98;;;10.90;70.20;;;;;;5095591;28;20055;-71
2022/06/02 03:10:23;;;;;;;15.40;9.85;;;10.90;70.30;;;;;;5095427;28;20029;-71
2022/06/02 03:12:48;;;;;;;16.02;9.98;;;11.00;70.40;;;;;;5095481;28;20044;-71
2022/06/02 03:15:33;;;;;;;14.93;10.32;;;11.10;70.20;;;;;;5095482;28;20032;-71
2022/06/02 03:18:35;;;;;;;17.40;10.93;;;11.00;69.80;;;;;;5095501;28;20021;-71
2022/06/02 03:21:32;;;;;;;16.63;9.98;;;10.80;70.40;;;;;;5082000;28;20037;-71
2022/06/02 03:24:32;;;;;;;17.63;9.77;;;10.70;70.40;;;;;;5095316;28;20024;-71
2022/06/02 03:27:21;;;;;;;15.70;10.23;;;10.60;71.50;;;;;;5095142;28;20017;-71
2022/06/02 03:30:02;;;;;;;15.80;10.20;;;10.50;72.40;;;;;;5095033;28;20089;-71
2022/06/02 03:32:46;;;;;;;15.55;10.50;;;10.40;72.80;;;;;;5095104;28;20044;-71
2022/06/02 03:35:43;;;;;;;16.67;9.95;;;10.50;72.90;;;;;;5095089;28;20111;-71
2022/06/02 03:38:32;;;;;;;15.10;10.32;;;10.60;72.20;;;;;;5095065;28;20048;-71
2022/06/02 03:41:00;;;;;;;14.90;9.95;;;10.60;72.00;;;;;;5094883;28;20029;-71
2022/06/02 03:43:51;;;;;;;17.52;10.60;;;10.60;71.60;;;;;;5094905;28;20096;-71
2022/06/02 03:46:44;;;;;;;18.13;11.05;;;10.40;71.70;;;;;;5094929;28;20051;-71
2022/06/02 03:49:29;;;;;;;20.40;11.55;;;10.50;71.80;;;;;;5094713;28;20039;-71
2022/06/02 03:52:19;;;;;;;22.63;12.85;;;10.50;71.50;;;;;;5094750;28;20043;-71
2022/06/02 03:55:29;;;;;;;19.42;11.75;;;10.60;71.80;;;;;;5094808;28;20496;-71
2022/06/02 03:58:33;;;;;;;18.42;11.40;;;10.70;71.70;;;;;;5070985;28;20071;-71
2022/06/02 04:01:03;;;;;;;19.55;11.93;;;10.70;72.30;;;;;;5071018;28;20503;-71
2022/06/02 04:03:45;;;;;;;18.23;10.70;;;10.70;72.40;;;;;;5093559;28;20046;-71
2022/06/02 04:06:40;;;;;;;19.67;12.48;;;10.70;72.60;;;;;;5094447;28;20024;-71
2022/06/02 04:09:12;;;;;;;19.77;11.50;;;10.50;73.00;;;;;;5094327;28;20025;-71
2022/06/02 04:14:45;;;;;;;17.75;11.40;;;10.50;73.30;;;;;;5094368;28;20031;-71
2022/06/02 04:17:35;;;;;;;18.15;11.32;;;10.40;73.10;;;;;;5094209;28;20044;-71
2022/06/02 04:20:39;;;;;;;22.70;12.18;;;10.30;73.70;;;;;;5094281;28;20017;-71
2022/06/02 04:23:15;;;;;;;20.50;12.00;;;10.40;74.00;;;;;;5094233;28;20110;-71
2022/06/02 04:26:02;;;;;;;21.10;12.93;;;10.40;74.10;;;;;;5094068;28;20024;-71
2022/06/02 04:28:54;;;;;;;21.25;12.55;;;10.50;74.00;;;;;;5093986;28;20055;-71
2022/06/02 04:31:46;;;;;;;23.52;13.07;;;10.60;73.90;;;;;;5093815;28;20017;-71
2022/06/02 04:34:20;;;;;;;20.80;11.70;;;10.60;74.00;;;;;;5084613;28;20033;-71
2022/06/02 04:36:58;;;;;;;21.20;12.20;;;10.70;73.40;;;;;;5093828;28;20040;-71
2022/06/02 04:39:54;;;;;;;21.40;14.20;;;10.80;73.30;;;;;;5093776;28;20104;-71
2022/06/02 04:42:34;;;;;;;22.05;14.15;;;10.70;74.70;;;;;;5092631;28;20084;-71
2022/06/02 04:45:18;;;;;;;25.83;14.43;;;10.50;75.90;;;;;;5091628;28;20096;-71
2022/06/02 04:47:52;;;;;;;25.67;15.23;;;10.40;76.80;;;;;;5093639;28;20040;-71
2022/06/02 04:50:20;;;;;;;31.83;16.95;;;10.50;77.20;;;;;;5093490;28;20096;-71
2022/06/02 04:52:54;;;;;;;27.52;17.08;;;10.60;77.40;;;;;;5093319;28;20115;-71
2022/06/02 04:55:31;;;;;;;28.30;16.40;;;10.80;77.20;;;;;;5093541;28;20023;-71
2022/06/02 04:58:27;;;;;;;30.17;17.88;;;11.00;77.00;;;;;;5093482;28;20138;-71
2022/06/02 05:01:31;;;;;;;27.90;17.05;;;11.10;76.60;;;;;;5093448;28;20080;-71
2022/06/02 05:04:38;;;;;;;29.77;18.77;;;11.20;76.70;;;;;;5070089;28;20058;-71
2022/06/02 05:07:45;;;;;;;31.02;18.50;;;11.30;76.60;;;;;;5072530;28;20050;-71
2022/06/02 05:10:16;;;;;;;32.85;19.45;;;11.40;76.50;;;;;;5093292;28;20016;-71
2022/06/02 05:13:07;;;;;;;34.03;20.50;;;11.40;76.90;;;;;;5093438;28;20028;-71
2022/06/02 05:15:42;;;;;;;33.60;20.58;;;11.50;77.10;;;;;;5093422;28;20020;-71
2022/06/02 05:18:23;;;;;;;33.30;20.08;;;11.60;77.20;;;;;;5093222;28;20020;-71
2022/06/02 05:21:00;;;;;;;37.28;21.80;;;11.60;77.20;;;;;;5093352;28;20031;-71
2022/06/02 05:23:56;;;;;;;36.30;22.05;;;11.70;77.10;;;;;;5093372;28;20115;-71
2022/06/02 05:26:41;;;;;;;35.10;21.92;;;11.80;77.30;;;;;;5093165;28;20044;-72
2022/06/02 05:29:28;;;;;;;37.30;21.98;;;11.80;77.30;;;;;;5093036;28;20033;-72
2022/06/02 05:32:09;;;;;;;38.00;22.48;;;11.90;77.40;;;;;;5093199;28;20058;-72
2022/06/02 05:34:59;;;;;;;37.28;22.38;;;11.90;77.60;;;;;;5093021;28;20048;-72
2022/06/02 05:38:00;;;;;;;38.78;22.85;;;12.00;77.80;;;;;;5093206;28;20032;-72
2022/06/02 05:40:38;;;;;;;36.30;21.30;;;12.10;77.90;;;;;;5093148;28;20024;-72
2022/06/02 05:43:21;;;;;;;36.80;20.90;;;12.10;78.00;;;;;;5093136;28;20026;-72
2022/06/02 05:46:21;;;;;;;34.83;20.80;;;12.20;78.30;;;;;;5093028;28;20020;-72
2022/06/02 05:48:53;;;;;;;34.05;19.30;;;12.30;78.30;;;;;;5093037;28;20020;-72
2022/06/02 05:51:40;;;;;;;33.55;20.55;;;12.30;78.20;;;;;;5092870;28;20064;-72
2022/06/02 05:54:30;;;;;;;35.20;19.77;;;12.40;78.20;;;;;;5092776;28;20049;-72
2022/06/02 05:57:20;;;;;;;31.88;18.83;;;12.40;78.00;;;;;;5092964;28;20029;-72
2022/06/02 06:00:17;;;;;;;33.95;20.23;;;12.50;78.40;;;;;;5092868;28;20029;-72
2022/06/02 06:03:06;;;;;;;35.60;20.67;;;12.50;79.10;;;;;;5092771;28;20025;-72
2022/06/02 06:05:46;;;;;;;34.25;21.17;;;12.50;78.60;;;;;;5092953;28;20039;-72
2022/06/02 06:08:17;;;;;;;37.28;22.10;;;12.50;79.80;;;;;;5092783;28;20402;-72
2022/06/02 06:11:00;;;;;;;35.65;21.15;;;12.60;80.10;;;;;;5092615;28;20071;-72
2022/06/02 06:13:41;;;;;;;36.10;21.58;;;12.60;80.60;;;;;;5092866;28;20076;-72
2022/06/02 06:16:19;;;;;;;35.50;21.73;;;12.60;80.30;;;;;;5092771;28;20036;-72
2022/06/02 06:19:01;;;;;;;36.28;21.73;;;12.70;79.90;;;;;;5092680;28;20103;-72
2022/06/02 06:21:33;;;;;;;35.47;20.67;;;12.80;79.70;;;;;;5092607;28;20020;-72
2022/06/02 06:24:26;;;;;;;36.35;21.02;;;12.90;79.80;;;;;;5092729;28;20032;-72
2022/06/02 06:27:05;;;;;;;37.92;22.33;;;12.90;79.80;;;;;;5095689;28;20039;-72
2022/06/02 06:30:01;;;;;;;38.75;21.70;;;13.00;80.40;;;;;;5095144;28;20037;-72
2022/06/02 06:32:48;;;;;;;34.03;20.73;;;13.10;79.80;;;;;;5095879;28;20032;-72
2022/06/02 06:35:35;;;;;;;32.40;20.05;;;13.20;79.60;;;;;;5096229;28;20021;-72
2022/06/02 06:38:35;;;;;;;30.40;18.92;;;13.30;79.40;;;;;;5096149;28;20024;-72
2022/06/02 06:41:37;;;;;;;29.23;18.08;;;13.40;79.00;;;;;;5095991;28;20029;-72
2022/06/02 06:44:26;;;;;;;32.88;18.63;;;13.40;78.70;;;;;;5096109;28;20055;-71
2022/06/02 06:47:06;;;;;;;31.65;20.00;;;13.50;78.50;;;;;;5096023;28;20052;-71
2022/06/02 06:49:42;;;;;;;31.30;19.42;;;13.50;78.40;;;;;;5095932;28;20056;-71
2022/06/02 06:52:22;;;;;;;29.92;17.85;;;13.60;78.90;;;;;;5095555;28;20074;-71
2022/06/02 06:54:54;;;;;;;31.20;19.30;;;13.60;79.70;;;;;;5095877;28;20025;-71
2022/06/02 06:57:25;;;;;;;29.15;17.25;;;13.70;79.10;;;;;;5095851;28;20081;-72
2022/06/02 07:00:10;;;;;;;28.25;16.83;;;13.80;79.10;;;;;;5095742;28;20025;-72
2022/06/02 07:03:03;;;;;;;25.60;16.67;;;13.90;79.30;;;;;;5095818;28;20029;-72
2022/06/02 07:05:35;;;;;;;24.77;16.05;;;14.00;78.70;;;;;;5095622;28;20028;-71
2022/06/02 07:08:18;;;;;;;23.42;15.35;;;13.90;78.50;;;;;;5095790;28;20024;-71
2022/06/02 07:10:57;;;;;;;25.55;16.05;;;14.00;78.50;;;;;;5095582;28;20031;-72
2022/06/02 07:13:30;;;;;;;24.15;14.75;;;14.00;78.80;;;;;;5095481;28;20388;-72
2022/06/02 07:16:00;;;;;;;23.02;14.82;;;14.10;78.70;;;;;;5095477;28;20019;-72
2022/06/02 07:18:37;;;;;;;23.95;14.60;;;14.20;79.30;;;;;;5095333;28;20031;-72
2022/06/02 07:21:21;;;;;;;19.85;13.52;;;14.30;78.50;;;;;;5094311;28;20029;-72
2022/06/02 07:24:03;;;;;;;19.17;12.60;;;14.40;77.80;;;;;;5095224;28;20415;-72
2022/06/02 07:26:31;;;;;;;20.88;14.52;;;14.40;77.40;;;;;;5095406;28;20040;-72
2022/06/02 07:29:29;;;;;;;22.83;15.60;;;14.50;77.10;;;;;;5095044;28;20349;-72
2022/06/02 07:32:21;;;;;;;23.45;15.60;;;14.60;76.80;;;;;;5094047;28;20025;-72
2022/06/02 07:35:22;;;;;;;23.40;15.35;;;14.70;76.40;;;;;;5066354;28;20028;-72
2022/06/02 07:38:18;;;;;;;21.98;14.80;;;14.80;76.10;;;;;;5094744;28;20031;-74
2022/06/02 07:41:08;;;;;;;11.77;8.82;;;15.00;75.50;;;;;;5095063;28;20028;-72
2022/06/02 07:43:42;;;;;;;10.85;8.18;;;14.80;72.20;;;;;;5094892;28;20035;-72
2022/06/02 07:46:26;;;;;;;11.50;8.73;;;14.80;72.70;;;;;;5094956;28;20032;-72
2022/06/02 07:49:08;;;;;;;12.80;9.32;;;14.80;72.00;;;;;;5094929;28;20055;-72
2022/06/02 07:51:37;;;;;;;13.77;9.82;;;14.90;71.60;;;;;;5094715;28;20031;-72
2022/06/02 07:54:28;;;;;;;16.48;10.95;;;14.80;71.90;;;;;;5094500;28;20041;-72
2022/06/02 07:57:12;;;;;;;13.60;9.60;;;14.90;71.60;;;;;;5094615;28;20103;-72
2022/06/02 08:00:03;;;;;;;13.38;9.70;;;14.90;70.10;;;;;;5093539;28;20028;-72
2022/06/02 08:02:47;;;;;;;12.55;8.93;;;14.80;68.60;;;;;;5094517;28;20024;-72
2022/06/02 08:05:38;;;;;;;11.75;8.30;;;14.80;69.20;;;;;;5094456;28;20039;-72
2022/06/02 08:08:29;;;;;;;13.00;8.57;;;14.80;68.20;;;;;;5094355;28;20028;-72
2022/06/02 08:11:31;;;;;;;16.48;9.32;;;14.80;68.30;;;;;;5094333;28;20032;-72
2022/06/02 08:14:08;;;;;;;11.35;8.90;;;14.90;67.60;;;;;;5094216;28;20028;-72
2022/06/02 08:17:00;;;;;;;12.65;9.18;;;15.00;68.70;;;;;;5094120;28;20085;-72
2022/06/02 08:19:44;;;;;;;13.20;10.23;;;15.00;66.20;;;;;;5094220;28;20084;-72
2022/06/02 08:22:16;;;;;;;13.23;8.65;;;15.00;67.90;;;;;;5094217;28;20029;-72
2022/06/02 08:25:06;;;;;;;17.42;9.60;;;15.20;67.60;;;;;;5094119;28;20028;-72
2022/06/02 08:28:14;;;;;;;11.55;9.45;;;15.30;66.90;;;;;;5094065;28;20028;-72
2022/06/02 08:31:04;;;;;;;12.60;9.20;;;15.50;66.80;;;;;;5094030;28;20036;-72
2022/06/02 08:33:52;;;;;;;10.95;8.07;;;15.50;66.60;;;;;;5094030;28;20021;-72
2022/06/02 08:36:29;;;;;;;10.27;7.00;;;15.60;65.50;;;;;;5093581;28;20044;-72
2022/06/02 08:39:25;;;;;;;9.57;7.05;;;15.60;63.80;;;;;;5093765;28;20027;-72
2022/06/02 08:42:33;;;;;;;12.13;9.07;;;15.70;64.10;;;;;;5093811;28;20032;-72
2022/06/02 08:45:20;;;;;;;10.27;8.30;;;16.00;66.80;;;;;;5093743;28;20020;-72
2022/06/02 08:48:16;;;;;;;14.57;8.52;;;16.20;65.70;;;;;;5093450;28;20187;-72
2022/06/02 08:51:18;;;;;;;11.45;9.35;;;16.30;65.60;;;;;;5093537;28;20040;-72
2022/06/02 08:54:05;;;;;;;10.93;7.47;;;16.50;65.70;;;;;;5093240;28;20045;-72
2022/06/02 08:57:04;;;;;;;10.27;7.60;;;16.70;65.80;;;;;;5093470;28;20024;-72
2022/06/02 09:00:00;;;;;;;12.10;7.65;;;16.90;64.80;;;;;;5093525;28;20024;-72
2022/06/02 09:02:34;;;;;;;9.45;7.30;;;17.00;64.40;;;;;;5093486;28;20036;-72
2022/06/02 09:05:41;;;;;;;11.13;8.27;;;16.90;61.30;;;;;;5093590;28;20028;-72
2022/06/02 09:08:19;;;;;;;11.60;7.88;;;16.90;63.30;;;;;;5093364;28;20024;-72
2022/06/02 09:11:13;;;;;;;9.57;7.65;;;17.00;62.20;;;;;;5093274;28;20081;-72
2022/06/02 09:14:12;;;;;;;10.98;8.38;;;17.00;61.30;;;;;;5093453;28;20025;-72
2022/06/02 09:16:57;;;;;;;9.50;7.43;;;17.00;60.90;;;;;;5093324;28;20021;-72
2022/06/02 09:19:32;;;;;;;10.05;7.72;;;17.10;61.80;;;;;;5093425;28;20047;-72
2022/06/02 09:22:10;;;;;;;11.45;7.60;;;17.20;61.60;;;;;;5093343;28;20093;-72
2022/06/02 09:24:50;;;;;;;8.90;7.00;;;17.30;60.20;;;;;;5093364;28;20029;-72
2022/06/02 09:27:47;;;;;;;10.02;7.28;;;17.30;58.00;;;;;;5093326;28;20039;-72
2022/06/02 09:30:19;;;;;;;8.65;7.18;;;17.20;57.80;;;;;;5093180;28;20021;-72
2022/06/02 09:33:00;;;;;;;8.02;6.88;;;17.10;57.80;;;;;;5091993;28;20029;-72
2022/06/02 09:35:36;;;;;;;8.23;6.93;;;17.20;56.70;;;;;;5093121;28;20495;-72
2022/06/02 09:38:09;;;;;;;9.70;6.60;;;17.30;60.10;;;;;;5093114;28;20020;-72
2022/06/02 09:41:18;;;;;;;8.65;6.55;;;17.60;60.20;;;;;;5093315;28;20013;-72
2022/06/02 09:44:01;;;;;;;7.50;5.80;;;17.80;60.40;;;;;;5079689;28;20029;-72
2022/06/02 09:46:56;;;;;;;9.43;6.15;;;18.10;59.10;;;;;;5092987;28;20024;-72
2022/06/02 09:49:21;;;;;;;8.27;6.43;;;17.90;52.70;;;;;;5093172;28;20017;-72
2022/06/02 09:51:55;;;;;;;7.35;5.68;;;17.90;56.10;;;;;;5092871;28;20031;-72
2022/06/02 09:54:58;;;;;;;7.18;5.65;;;18.10;55.60;;;;;;5092793;28;20045;-72
2022/06/02 09:57:59;;;;;;;10.15;6.90;;;18.00;54.50;;;;;;5092858;28;20025;-72
2022/06/02 10:01:06;;;;;;;8.00;6.63;;;18.10;54.00;;;;;;5093840;28;20024;-72
2022/06/02 10:04:07;;;;;;;9.23;6.40;;;18.20;53.80;;;;;;5073216;28;20033;-73
2022/06/02 10:07:13;;;;;;;8.50;6.68;;;18.20;52.60;;;;;;5096747;28;20024;-72
2022/06/02 10:10:05;;;;;;;6.80;5.60;;;18.10;55.40;;;;;;5096877;28;20051;-72
2022/06/02 10:12:55;;;;;;;5.28;4.15;;;18.30;55.60;;;;;;5093385;28;20096;-72
2022/06/02 10:15:42;;;;;;;8.30;5.88;;;18.50;56.00;;;;;;5096591;28;20017;-72
2022/06/02 10:18:35;;;;;;;7.00;5.60;;;18.60;53.30;;;;;;5096531;28;20029;-72
2022/06/02 10:21:22;;;;;;;9.02;7.00;;;18.80;54.70;;;;;;5096547;28;20039;-72
2022/06/02 10:24:15;;;;;;;8.90;7.05;;;18.90;56.90;;;;;;5096408;28;20080;-72
2022/06/02 10:27:01;;;;;;;8.05;6.75;;;19.00;55.50;;;;;;5096330;28;20074;-73
2022/06/02 10:30:13;;;;;;;7.95;5.93;;;19.00;52.10;;;;;;5096163;28;20035;-72
2022/06/02 10:32:47;;;;;;;8.23;6.22;;;18.90;52.90;;;;;;5096249;28;20490;-72
2022/06/02 10:35:25;;;;;;;7.63;6.22;;;19.00;53.50;;;;;;5096157;28;20027;-72
2022/06/02 10:38:21;;;;;;;8.95;6.32;;;19.20;53.90;;;;;;5096135;28;20050;-72
2022/06/02 10:41:24;;;;;;;9.07;6.90;;;19.30;50.60;;;;;;5096097;28;20029;-72
2022/06/02 10:44:19;;;;;;;8.60;6.38;;;19.10;50.20;;;;;;5096212;28;20035;-72
2022/06/02 10:47:01;;;;;;;8.07;5.90;;;19.00;50.10;;;;;;5096020;28;20036;-72
2022/06/02 10:49:55;;;;;;;5.93;4.93;;;19.00;49.70;;;;;;5095965;28;20025;-72
2022/06/02 10:52:56;;;;;;;8.50;7.10;;;19.20;50.60;;;;;;5068119;28;20036;-72
2022/06/02 10:55:42;;;;;;;9.07;6.50;;;19.30;49.50;;;;;;5072316;28;20444;-73
2022/06/02 10:58:42;;;;;;;10.52;8.20;;;19.40;51.70;;;;;;5095940;28;20020;-73
2022/06/02 11:01:41;;;;;;;9.63;7.15;;;19.60;51.90;;;;;;5095729;28;20023;-73
2022/06/02 11:04:29;;;;;;;9.80;7.50;;;19.70;51.60;;;;;;5095660;28;20024;-73
2022/06/02 11:07:04;;;;;;;11.70;8.23;;;19.80;52.50;;;;;;5095729;28;20025;-73
2022/06/02 11:09:46;;;;;;;11.38;8.15;;;19.60;50.10;;;;;;5095572;28;20024;-73
2022/06/02 11:12:40;;;;;;;11.82;7.30;;;19.40;48.80;;;;;;5095055;28;20074;-73
2022/06/02 11:15:09;;;;;;;9.05;7.22;;;19.20;49.30;;;;;;5095444;28;20063;-73
2022/06/02 11:17:59;;;;;;;7.57;6.28;;;19.20;49.80;;;;;;5095440;28;20108;-73
2022/06/02 11:20:52;;;;;;;9.48;7.15;;;19.30;52.30;;;;;;5095551;28;20028;-73
2022/06/02 11:23:40;;;;;;;8.23;6.47;;;19.20;48.00;;;;;;5094271;28;20033;-73
2022/06/02 11:26:18;;;;;;;12.43;6.82;;;19.40;50.40;;;;;;5095305;28;20029;-73
2022/06/02 11:29:14;;;;;;;9.90;6.63;;;19.50;48.00;;;;;;5095116;28;20030;-73
2022/06/02 11:31:46;;;;;;;6.57;5.70;;;19.50;49.10;;;;;;5095222;28;20028;-73
2022/06/02 11:34:49;;;;;;;8.20;6.20;;;19.80;50.40;;;;;;5095107;28;20398;-73
2022/06/02 11:37:36;;;;;;;9.13;6.03;;;20.00;49.10;;;;;;5095023;28;20051;-73
2022/06/02 11:40:08;;;;;;;7.07;5.72;;;20.10;50.30;;;;;;5095042;28;20020;-72
2022/06/02 11:42:33;;;;;;;6.95;5.80;;;20.30;48.90;;;;;;5094975;28;20032;-73
2022/06/02 11:45:25;;;;;;;5.00;3.83;;;20.30;48.10;;;;;;5094884;28;20039;-73
2022/06/02 11:48:17;;;;;;;5.38;3.65;;;20.30;45.50;;;;;;5095043;28;20471;-73
2022/06/02 11:51:10;;;;;;;4.60;3.35;;;20.40;47.60;;;;;;5094787;28;20035;-72
2022/06/02 11:54:13;;;;;;;5.32;3.13;;;20.40;44.30;;;;;;5094597;28;20126;-73
2022/06/02 11:56:57;;;;;;;5.50;3.65;;;20.20;45.40;;;;;;5094747;28;20027;-73
2022/06/02 11:59:25;;;;;;;4.32;3.28;;;19.90;43.80;;;;;;5094596;28;20036;-72
2022/06/02 12:02:03;;;;;;;4.10;3.45;;;19.80;45.30;;;;;;5094487;28;20081;-72
2022/06/02 12:04:38;;;;;;;4.82;3.63;;;19.80;45.10;;;;;;5093409;28;20033;-72
2022/06/02 12:07:41;;;;;;;3.78;3.35;;;19.70;46.10;;;;;;5094461;28;20055;-72
2022/06/02 12:10:26;;;;;;;5.30;3.97;;;19.60;44.80;;;;;;5094337;28;20040;-72
2022/06/02 12:13:16;;;;;;;5.22;3.83;;;19.50;46.10;;;;;;5094300;28;20593;-73
2022/06/02 12:15:48;;;;;;;4.30;3.55;;;19.60;48.30;;;;;;5094281;28;20021;-72
2022/06/02 12:18:26;;;;;;;5.68;3.83;;;19.80;48.30;;;;;;5093209;28;20035;-73
2022/06/02 12:21:26;;;;;;;5.00;3.70;;;20.00;45.30;;;;;;5094199;28;20103;-73
2022/06/02 12:24:29;;;;;;;6.05;4.32;;;20.00;45.20;;;;;;5093398;28;20081;-73
2022/06/02 12:26:54;;;;;;;;;;;19.90;42.70;;;;;;5093384;28;20058;-73
2022/06/02 12:29:44;;;;;;;6.53;4.13;;;20.00;42.70;;;;;;5093953;28;19971;-73
2022/06/02 12:32:26;;;;;;;5.68;3.40;;;20.00;44.50;;;;;;5093901;28;20122;-73
2022/06/02 12:35:04;;;;;;;5.28;3.65;;;20.30;48.00;;;;;;5093961;28;20103;-73
2022/06/02 12:38:15;;;;;;;4.65;3.35;;;20.30;46.00;;;;;;5094024;28;20021;-73
2022/06/02 12:41:01;;;;;;;4.28;3.13;;;20.50;47.90;;;;;;5089625;28;20032;-72
2022/06/02 12:44:11;;;;;;;3.92;3.08;;;20.60;47.50;;;;;;5093778;28;20036;-72
2022/06/02 12:46:49;;;;;;;5.40;2.85;;;20.80;47.60;;;;;;5093764;28;20024;-72
2022/06/02 12:49:53;;;;;;;4.72;4.22;;;20.80;47.30;;;;;;5093622;28;20024;-72
2022/06/02 12:52:57;;;;;;;6.47;3.85;;;20.90;45.80;;;;;;5093459;28;20062;-72
2022/06/02 12:55:59;;;;;;;4.40;3.60;;;21.00;45.80;;;;;;5093556;28;20468;-72
2022/06/02 12:58:36;;;;;;;6.50;4.05;;;21.10;45.60;;;;;;5093522;28;20021;-72
2022/06/02 13:01:08;;;;;;;6.90;4.60;;;21.30;46.00;;;;;;5093582;28;20021;-72
2022/06/02 13:04:25;;;;;;;5.18;4.30;;;21.40;43.60;;;;;;5093540;28;20035;-72
2022/06/02 13:07:28;;;;;;;5.43;4.35;;;21.50;44.50;;;;;;5059611;28;20043;-72
2022/06/02 13:10:05;;;;;;;5.43;4.32;;;21.60;42.90;;;;;;5093258;28;20025;-72
2022/06/02 13:12:58;;;;;;;12.95;5.82;;;21.60;45.40;;;;;;5093382;28;20025;-72
2022/06/02 13:15:44;;;;;;;5.57;4.20;;;21.60;44.90;;;;;;5093320;28;20040;-72
2022/06/02 13:18:29;;;;;;;5.78;4.15;;;21.70;45.30;;;;;;5093288;28;20084;-72
2022/06/02 13:21:16;;;;;;;5.85;5.25;;;21.90;45.10;;;;;;5093367;28;20024;-72
2022/06/02 13:23:59;;;;;;;5.68;4.90;;;21.60;41.80;;;;;;5093277;28;20031;-73
2022/06/02 13:26:48;;;;;;;6.07;4.68;;;21.40;43.60;;;;;;5093360;28;20028;-72
2022/06/02 13:29:31;;;;;;;6.35;5.20;;;21.40;44.30;;;;;;5093307;28;20044;-73
2022/06/02 13:32:20;;;;;;;8.10;4.63;;;21.50;42.60;;;;;;5093115;28;20071;-72
2022/06/02 13:35:24;;;;;;;3.67;3.10;;;21.30;43.80;;;;;;5095645;28;20138;-72
2022/06/02 13:38:07;;;;;;;5.57;4.07;;;21.40;44.80;;;;;;5099904;28;20025;-72
2022/06/02 13:40:39;;;;;;;3.70;3.30;;;21.20;43.60;;;;;;5099820;28;20031;-72
2022/06/02 13:43:38;;;;;;;4.30;3.08;;;21.20;44.30;;;;;;5099895;28;20048;-72
2022/06/02 13:47:06;;;;;;;6.63;3.35;;;21.30;44.30;;;;;;5099784;28;20127;-72
2022/06/02 13:50:08;;;;;;;4.15;2.63;;;21.50;42.30;;;;;;5037925;28;20512;-72
2022/06/02 13:53:11;;;;;;;3.20;2.72;;;21.70;43.00;;;;;;5037700;28;20050;-72
2022/06/02 13:59:53;;;;;;;4.45;3.17;;;22.00;41.30;;;;;;5099150;28;20058;-72
2022/06/02 14:02:29;;;;;;;4.18;3.20;;;21.50;42.40;;;;;;5037760;28;20038;-72
2022/06/02 14:05:13;;;;;;;4.22;3.15;;;21.40;42.80;;;;;;5091046;28;20067;-72
2022/06/02 14:07:56;;;;;;;5.57;2.85;;;21.60;43.60;;;;;;5099698;28;20023;-72
2022/06/02 14:10:52;;;;;;;3.67;2.67;;;21.80;44.40;;;;;;5098542;28;20112;-72
2022/06/02 14:13:38;;;;;;;4.85;2.60;;;22.00;44.60;;;;;;5099522;28;20029;-72
2022/06/02 14:16:25;;;;;;;2.83;2.30;;;22.20;43.60;;;;;;5099671;28;20050;-72
2022/06/02 14:19:05;;;;;;;4.25;2.70;;;22.40;43.50;;;;;;5099670;28;20044;-72
2022/06/02 14:22:09;;;;;;;3.88;2.88;;;22.30;39.10;;;;;;5099447;28;20107;-73
2022/06/02 14:24:54;;;;;;;3.47;2.83;;;22.10;39.70;;;;;;5099398;28;20031;-72